sensor_id;sensor_type;location;lat;lon;timestamp;P1;durP1;ratioP1;P2;durP2;ratioP2
73296;SDS011;61524;50.938;11.396;2023-08-24T00:00:11;6.10;;;4.07;;
73296;SDS011;61524;50.938;11.396;2023-08-24T00:02:36;9.55;;;4.07;;
73296;SDS011;61524;50.938;11.396;2023-08-24T00:05:02;10.10;;;4.15;;
73296;SDS011;61524;50.938;11.396;2023-08-24T00:07:27;6.38;;;3.67;;
73296;SDS011;61524;50.938;11.396;2023-08-24T00:09:53;9.90;;;4.73;;
73296;SDS011;61524;50.938;11.396;2023-08-24T00:12:18;10.03;;;3.87;;
73296;SDS011;61524;50.938;11.396;2023-08-24T00:14:43;6.50;;;3.38;;
73296;SDS011;61524;50.938;11.396;2023-08-24T00:17:09;8.70;;;4.07;;
73296;SDS011;61524;50.938;11.396;2023-08-24T00:19:34;9.83;;;4.00;;
73296;SDS011;61524;50.938;11.396;2023-08-24T00:21:59;7.60;;;3.53;;
73296;SDS011;61524;50.938;11.396;2023-08-24T00:24:24;5.67;;;3.27;;
73296;SDS011;61524;50.938;11.396;2023-08-24T00:26:50;6.05;;;3.42;;
73296;SDS011;61524;50.938;11.396;2023-08-24T00:29:15;9.30;;;3.53;;
73296;SDS011;61524;50.938;11.396;2023-08-24T00:31:40;7.57;;;3.70;;
73296;SDS011;61524;50.938;11.396;2023-08-24T00:34:06;7.80;;;3.83;;
73296;SDS011;61524;50.938;11.396;2023-08-24T00:36:31;6.22;;;3.67;;
73296;SDS011;61524;50.938;11.396;2023-08-24T00:38:56;6.07;;;3.50;;
73296;SDS011;61524;50.938;11.396;2023-08-24T00:41:22;5.60;;;4.03;;
73296;SDS011;61524;50.938;11.396;2023-08-24T00:43:47;7.10;;;3.50;;
73296;SDS011;61524;50.938;11.396;2023-08-24T00:46:15;6.55;;;4.03;;
73296;SDS011;61524;50.938;11.396;2023-08-24T00:48:40;7.23;;;4.23;;
73296;SDS011;61524;50.938;11.396;2023-08-24T00:51:05;6.45;;;4.15;;
73296;SDS011;61524;50.938;11.396;2023-08-24T00:53:30;6.90;;;3.83;;
73296;SDS011;61524;50.938;11.396;2023-08-24T00:55:56;11.43;;;3.90;;
73296;SDS011;61524;50.938;11.396;2023-08-24T00:58:21;6.53;;;3.75;;
73296;SDS011;61524;50.938;11.396;2023-08-24T01:00:53;8.98;;;4.03;;
73296;SDS011;61524;50.938;11.396;2023-08-24T01:03:19;6.95;;;3.80;;
73296;SDS011;61524;50.938;11.396;2023-08-24T01:05:44;7.53;;;3.83;;
73296;SDS011;61524;50.938;11.396;2023-08-24T01:08:11;6.20;;;4.15;;
73296;SDS011;61524;50.938;11.396;2023-08-24T01:10:40;6.82;;;4.10;;
73296;SDS011;61524;50.938;11.396;2023-08-24T01:18:18;6.85;;;4.05;;
73296;SDS011;61524;50.938;11.396;2023-08-24T01:20:45;8.30;;;4.10;;
73296;SDS011;61524;50.938;11.396;2023-08-24T01:25:38;6.15;;;3.35;;
73296;SDS011;61524;50.938;11.396;2023-08-24T01:28:04;7.47;;;3.63;;
73296;SDS011;61524;50.938;11.396;2023-08-24T01:30:33;7.22;;;4.10;;
73296;SDS011;61524;50.938;11.396;2023-08-24T01:33:01;6.22;;;3.95;;
73296;SDS011;61524;50.938;11.396;2023-08-24T01:35:27;7.85;;;3.83;;
73296;SDS011;61524;50.938;11.396;2023-08-24T01:37:52;5.72;;;3.75;;
73296;SDS011;61524;50.938;11.396;2023-08-24T01:40:20;9.53;;;4.60;;
73296;SDS011;61524;50.938;11.396;2023-08-24T01:43:04;7.40;;;3.88;;
73296;SDS011;61524;50.938;11.396;2023-08-24T01:45:31;5.35;;;3.22;;
73296;SDS011;61524;50.938;11.396;2023-08-24T01:47:57;7.60;;;3.95;;
73296;SDS011;61524;50.938;11.396;2023-08-24T01:50:23;7.85;;;4.43;;
73296;SDS011;61524;50.938;11.396;2023-08-24T01:52:49;6.75;;;3.63;;
73296;SDS011;61524;50.938;11.396;2023-08-24T01:55:15;7.60;;;3.83;;
73296;SDS011;61524;50.938;11.396;2023-08-24T01:57:42;7.18;;;3.85;;
73296;SDS011;61524;50.938;11.396;2023-08-24T02:00:07;6.23;;;3.70;;
73296;SDS011;61524;50.938;11.396;2023-08-24T02:02:34;5.50;;;3.53;;
73296;SDS011;61524;50.938;11.396;2023-08-24T02:05:00;6.25;;;3.72;;
73296;SDS011;61524;50.938;11.396;2023-08-24T02:07:25;7.47;;;3.97;;
73296;SDS011;61524;50.938;11.396;2023-08-24T02:09:50;7.43;;;4.10;;
73296;SDS011;61524;50.938;11.396;2023-08-24T02:12:16;5.67;;;3.47;;
73296;SDS011;61524;50.938;11.396;2023-08-24T02:14:41;8.53;;;3.80;;
73296;SDS011;61524;50.938;11.396;2023-08-24T02:17:06;6.63;;;3.60;;
73296;SDS011;61524;50.938;11.396;2023-08-24T02:19:31;9.10;;;3.88;;
73296;SDS011;61524;50.938;11.396;2023-08-24T02:21:57;6.22;;;4.22;;
73296;SDS011;61524;50.938;11.396;2023-08-24T02:24:22;6.07;;;3.70;;
73296;SDS011;61524;50.938;11.396;2023-08-24T02:26:48;11.57;;;4.32;;
73296;SDS011;61524;50.938;11.396;2023-08-24T02:29:13;6.43;;;4.07;;
73296;SDS011;61524;50.938;11.396;2023-08-24T02:31:38;6.70;;;3.70;;
73296;SDS011;61524;50.938;11.396;2023-08-24T02:34:05;6.15;;;4.22;;
73296;SDS011;61524;50.938;11.396;2023-08-24T02:36:31;7.35;;;4.40;;
73296;SDS011;61524;50.938;11.396;2023-08-24T02:38:58;8.27;;;3.78;;
73296;SDS011;61524;50.938;11.396;2023-08-24T02:41:23;10.15;;;4.03;;
73296;SDS011;61524;50.938;11.396;2023-08-24T02:43:48;6.10;;;4.03;;
73296;SDS011;61524;50.938;11.396;2023-08-24T02:46:13;7.10;;;4.25;;
73296;SDS011;61524;50.938;11.396;2023-08-24T02:48:39;7.87;;;4.50;;
73296;SDS011;61524;50.938;11.396;2023-08-24T02:51:05;9.27;;;4.50;;
73296;SDS011;61524;50.938;11.396;2023-08-24T02:53:31;7.55;;;4.00;;
73296;SDS011;61524;50.938;11.396;2023-08-24T02:55:56;6.28;;;3.47;;
73296;SDS011;61524;50.938;11.396;2023-08-24T02:58:22;6.93;;;4.63;;
73296;SDS011;61524;50.938;11.396;2023-08-24T03:00:47;7.70;;;3.80;;
73296;SDS011;61524;50.938;11.396;2023-08-24T03:03:16;8.40;;;4.50;;
73296;SDS011;61524;50.938;11.396;2023-08-24T03:05:51;8.43;;;4.13;;
73296;SDS011;61524;50.938;11.396;2023-08-24T03:08:17;7.32;;;4.35;;
73296;SDS011;61524;50.938;11.396;2023-08-24T03:10:42;8.90;;;4.57;;
73296;SDS011;61524;50.938;11.396;2023-08-24T03:13:07;6.85;;;4.13;;
73296;SDS011;61524;50.938;11.396;2023-08-24T03:15:34;8.32;;;4.43;;
73296;SDS011;61524;50.938;11.396;2023-08-24T03:17:59;7.07;;;4.15;;
73296;SDS011;61524;50.938;11.396;2023-08-24T03:20:25;6.53;;;3.70;;
73296;SDS011;61524;50.938;11.396;2023-08-24T03:22:50;8.40;;;4.15;;
73296;SDS011;61524;50.938;11.396;2023-08-24T03:25:15;6.87;;;4.23;;
73296;SDS011;61524;50.938;11.396;2023-08-24T03:27:41;6.37;;;3.67;;
73296;SDS011;61524;50.938;11.396;2023-08-24T03:30:06;8.77;;;4.68;;
73296;SDS011;61524;50.938;11.396;2023-08-24T03:32:32;7.40;;;4.28;;
73296;SDS011;61524;50.938;11.396;2023-08-24T03:35:01;5.53;;;3.73;;
73296;SDS011;61524;50.938;11.396;2023-08-24T03:37:27;7.00;;;3.95;;
73296;SDS011;61524;50.938;11.396;2023-08-24T03:39:52;7.75;;;4.45;;
73296;SDS011;61524;50.938;11.396;2023-08-24T03:42:17;9.60;;;4.50;;
73296;SDS011;61524;50.938;11.396;2023-08-24T03:44:43;8.40;;;4.23;;
73296;SDS011;61524;50.938;11.396;2023-08-24T03:47:08;8.43;;;4.37;;
73296;SDS011;61524;50.938;11.396;2023-08-24T03:49:37;6.40;;;4.30;;
73296;SDS011;61524;50.938;11.396;2023-08-24T03:52:03;6.25;;;4.30;;
73296;SDS011;61524;50.938;11.396;2023-08-24T03:54:28;7.47;;;3.88;;
73296;SDS011;61524;50.938;11.396;2023-08-24T03:56:53;7.30;;;3.92;;
73296;SDS011;61524;50.938;11.396;2023-08-24T03:59:18;6.03;;;4.10;;
73296;SDS011;61524;50.938;11.396;2023-08-24T04:01:44;6.20;;;4.43;;
73296;SDS011;61524;50.938;11.396;2023-08-24T04:04:09;6.73;;;4.40;;
73296;SDS011;61524;50.938;11.396;2023-08-24T04:06:34;7.83;;;4.20;;
73296;SDS011;61524;50.938;11.396;2023-08-24T04:09:00;6.78;;;4.97;;
73296;SDS011;61524;50.938;11.396;2023-08-24T04:11:25;7.30;;;4.70;;
73296;SDS011;61524;50.938;11.396;2023-08-24T04:13:50;8.23;;;4.57;;
73296;SDS011;61524;50.938;11.396;2023-08-24T04:16:15;7.80;;;4.73;;
73296;SDS011;61524;50.938;11.396;2023-08-24T04:18:41;6.85;;;5.07;;
73296;SDS011;61524;50.938;11.396;2023-08-24T04:21:07;6.50;;;4.40;;
73296;SDS011;61524;50.938;11.396;2023-08-24T04:23:32;7.27;;;4.83;;
73296;SDS011;61524;50.938;11.396;2023-08-24T04:25:57;7.60;;;4.67;;
73296;SDS011;61524;50.938;11.396;2023-08-24T04:28:23;8.13;;;5.40;;
73296;SDS011;61524;50.938;11.396;2023-08-24T04:30:52;7.28;;;4.43;;
73296;SDS011;61524;50.938;11.396;2023-08-24T04:33:17;8.02;;;5.00;;
73296;SDS011;61524;50.938;11.396;2023-08-24T04:35:44;10.68;;;4.97;;
73296;SDS011;61524;50.938;11.396;2023-08-24T04:38:10;6.53;;;4.03;;
73296;SDS011;61524;50.938;11.396;2023-08-24T04:40:46;8.85;;;4.43;;
73296;SDS011;61524;50.938;11.396;2023-08-24T04:43:11;7.85;;;4.63;;
73296;SDS011;61524;50.938;11.396;2023-08-24T04:45:36;8.30;;;4.47;;
73296;SDS011;61524;50.938;11.396;2023-08-24T04:48:02;8.00;;;4.60;;
73296;SDS011;61524;50.938;11.396;2023-08-24T04:50:28;7.28;;;4.68;;
73296;SDS011;61524;50.938;11.396;2023-08-24T04:52:53;8.23;;;5.93;;
73296;SDS011;61524;50.938;11.396;2023-08-24T04:55:18;6.40;;;4.77;;
73296;SDS011;61524;50.938;11.396;2023-08-24T04:57:43;7.13;;;4.47;;
73296;SDS011;61524;50.938;11.396;2023-08-24T05:00:09;6.77;;;4.43;;
73296;SDS011;61524;50.938;11.396;2023-08-24T05:02:40;6.00;;;4.72;;
73296;SDS011;61524;50.938;11.396;2023-08-24T05:05:06;6.60;;;4.50;;
73296;SDS011;61524;50.938;11.396;2023-08-24T05:07:31;9.27;;;5.60;;
73296;SDS011;61524;50.938;11.396;2023-08-24T05:09:57;7.87;;;5.43;;
73296;SDS011;61524;50.938;11.396;2023-08-24T05:12:22;10.53;;;5.20;;
73296;SDS011;61524;50.938;11.396;2023-08-24T05:14:47;10.27;;;5.05;;
73296;SDS011;61524;50.938;11.396;2023-08-24T05:17:12;9.10;;;5.50;;
73296;SDS011;61524;50.938;11.396;2023-08-24T05:19:38;6.80;;;4.70;;
73296;SDS011;61524;50.938;11.396;2023-08-24T05:22:03;6.70;;;4.53;;
73296;SDS011;61524;50.938;11.396;2023-08-24T05:24:28;6.60;;;4.30;;
73296;SDS011;61524;50.938;11.396;2023-08-24T05:26:53;7.28;;;4.55;;
73296;SDS011;61524;50.938;11.396;2023-08-24T05:29:19;7.07;;;4.80;;
73296;SDS011;61524;50.938;11.396;2023-08-24T05:31:44;8.63;;;4.57;;
73296;SDS011;61524;50.938;11.396;2023-08-24T05:34:09;7.90;;;4.63;;
73296;SDS011;61524;50.938;11.396;2023-08-24T05:36:35;11.02;;;5.43;;
73296;SDS011;61524;50.938;11.396;2023-08-24T05:39:00;7.70;;;5.25;;
73296;SDS011;61524;50.938;11.396;2023-08-24T05:41:25;7.10;;;3.97;;
73296;SDS011;61524;50.938;11.396;2023-08-24T05:43:50;9.88;;;4.72;;
73296;SDS011;61524;50.938;11.396;2023-08-24T05:46:17;8.38;;;4.75;;
73296;SDS011;61524;50.938;11.396;2023-08-24T05:48:43;10.57;;;5.32;;
73296;SDS011;61524;50.938;11.396;2023-08-24T05:51:08;6.73;;;4.33;;
73296;SDS011;61524;50.938;11.396;2023-08-24T05:53:35;7.57;;;4.55;;
73296;SDS011;61524;50.938;11.396;2023-08-24T05:56:00;8.03;;;3.90;;
73296;SDS011;61524;50.938;11.396;2023-08-24T05:58:25;10.25;;;4.57;;
73296;SDS011;61524;50.938;11.396;2023-08-24T06:00:55;5.75;;;3.60;;
73296;SDS011;61524;50.938;11.396;2023-08-24T06:03:20;7.70;;;4.13;;
73296;SDS011;61524;50.938;11.396;2023-08-24T06:05:46;14.10;;;4.77;;
73296;SDS011;61524;50.938;11.396;2023-08-24T06:08:11;7.57;;;4.80;;
73296;SDS011;61524;50.938;11.396;2023-08-24T06:10:36;6.73;;;4.23;;
73296;SDS011;61524;50.938;11.396;2023-08-24T06:13:01;6.00;;;3.53;;
73296;SDS011;61524;50.938;11.396;2023-08-24T06:15:27;6.20;;;4.13;;
73296;SDS011;61524;50.938;11.396;2023-08-24T06:17:53;9.75;;;3.35;;
73296;SDS011;61524;50.938;11.396;2023-08-24T06:20:18;6.93;;;3.95;;
73296;SDS011;61524;50.938;11.396;2023-08-24T06:22:44;6.82;;;4.03;;
73296;SDS011;61524;50.938;11.396;2023-08-24T06:25:09;7.53;;;4.10;;
73296;SDS011;61524;50.938;11.396;2023-08-24T06:27:34;5.82;;;3.75;;
73296;SDS011;61524;50.938;11.396;2023-08-24T06:30:01;5.43;;;3.55;;
73296;SDS011;61524;50.938;11.396;2023-08-24T06:32:26;6.78;;;3.58;;
73296;SDS011;61524;50.938;11.396;2023-08-24T06:34:51;6.60;;;3.70;;
73296;SDS011;61524;50.938;11.396;2023-08-24T06:37:16;8.00;;;3.80;;
73296;SDS011;61524;50.938;11.396;2023-08-24T06:39:42;6.30;;;3.97;;
73296;SDS011;61524;50.938;11.396;2023-08-24T06:42:07;10.00;;;3.87;;
73296;SDS011;61524;50.938;11.396;2023-08-24T06:44:32;5.00;;;3.60;;
73296;SDS011;61524;50.938;11.396;2023-08-24T06:46:57;6.20;;;3.50;;
73296;SDS011;61524;50.938;11.396;2023-08-24T06:49:23;6.97;;;3.27;;
73296;SDS011;61524;50.938;11.396;2023-08-24T06:51:48;5.30;;;3.87;;
73296;SDS011;61524;50.938;11.396;2023-08-24T06:54:13;8.48;;;3.40;;
73296;SDS011;61524;50.938;11.396;2023-08-24T06:56:39;6.85;;;3.38;;
73296;SDS011;61524;50.938;11.396;2023-08-24T06:59:05;6.03;;;3.28;;
73296;SDS011;61524;50.938;11.396;2023-08-24T07:01:30;5.40;;;3.60;;
73296;SDS011;61524;50.938;11.396;2023-08-24T07:03:57;7.57;;;3.35;;
73296;SDS011;61524;50.938;11.396;2023-08-24T07:06:22;5.18;;;3.00;;
73296;SDS011;61524;50.938;11.396;2023-08-24T07:08:47;6.07;;;3.30;;
73296;SDS011;61524;50.938;11.396;2023-08-24T07:11:13;5.18;;;3.40;;
73296;SDS011;61524;50.938;11.396;2023-08-24T07:13:39;5.95;;;3.38;;
73296;SDS011;61524;50.938;11.396;2023-08-24T07:16:05;7.40;;;3.03;;
73296;SDS011;61524;50.938;11.396;2023-08-24T07:18:30;4.77;;;3.20;;
73296;SDS011;61524;50.938;11.396;2023-08-24T07:20:55;5.57;;;2.80;;
73296;SDS011;61524;50.938;11.396;2023-08-24T07:23:21;7.03;;;2.95;;
73296;SDS011;61524;50.938;11.396;2023-08-24T07:25:46;8.33;;;2.80;;
73296;SDS011;61524;50.938;11.396;2023-08-24T07:28:11;5.30;;;2.87;;
73296;SDS011;61524;50.938;11.396;2023-08-24T07:30:36;4.73;;;2.93;;
73296;SDS011;61524;50.938;11.396;2023-08-24T07:33:02;5.93;;;2.83;;
73296;SDS011;61524;50.938;11.396;2023-08-24T07:35:30;9.27;;;3.30;;
73296;SDS011;61524;50.938;11.396;2023-08-24T07:37:55;4.27;;;2.40;;
73296;SDS011;61524;50.938;11.396;2023-08-24T07:40:21;4.13;;;2.85;;
73296;SDS011;61524;50.938;11.396;2023-08-24T07:42:47;6.87;;;2.93;;
73296;SDS011;61524;50.938;11.396;2023-08-24T07:47:38;3.72;;;2.38;;
73296;SDS011;61524;50.938;11.396;2023-08-24T07:50:04;4.20;;;2.72;;
73296;SDS011;61524;50.938;11.396;2023-08-24T07:52:29;5.32;;;3.05;;
73296;SDS011;61524;50.938;11.396;2023-08-24T07:54:55;5.38;;;3.30;;
73296;SDS011;61524;50.938;11.396;2023-08-24T07:57:24;9.13;;;2.80;;
73296;SDS011;61524;50.938;11.396;2023-08-24T07:59:51;3.92;;;2.78;;
73296;SDS011;61524;50.938;11.396;2023-08-24T08:02:16;4.03;;;2.30;;
73296;SDS011;61524;50.938;11.396;2023-08-24T08:04:41;4.72;;;2.42;;
73296;SDS011;61524;50.938;11.396;2023-08-24T08:07:07;4.50;;;2.30;;
73296;SDS011;61524;50.938;11.396;2023-08-24T08:09:32;5.43;;;2.60;;
73296;SDS011;61524;50.938;11.396;2023-08-24T08:11:57;7.13;;;2.23;;
73296;SDS011;61524;50.938;11.396;2023-08-24T08:14:23;7.13;;;2.60;;
73296;SDS011;61524;50.938;11.396;2023-08-24T08:16:48;4.43;;;2.47;;
73296;SDS011;61524;50.938;11.396;2023-08-24T08:19:14;6.75;;;2.35;;
73296;SDS011;61524;50.938;11.396;2023-08-24T08:21:39;6.30;;;2.40;;
73296;SDS011;61524;50.938;11.396;2023-08-24T08:24:04;8.13;;;2.70;;
73296;SDS011;61524;50.938;11.396;2023-08-24T08:26:31;5.28;;;2.30;;
73296;SDS011;61524;50.938;11.396;2023-08-24T08:28:56;4.85;;;2.70;;
73296;SDS011;61524;50.938;11.396;2023-08-24T08:31:21;5.43;;;2.37;;
73296;SDS011;61524;50.938;11.396;2023-08-24T08:33:46;4.80;;;2.20;;
73296;SDS011;61524;50.938;11.396;2023-08-24T08:36:12;4.00;;;2.30;;
73296;SDS011;61524;50.938;11.396;2023-08-24T08:38:37;3.93;;;2.00;;
73296;SDS011;61524;50.938;11.396;2023-08-24T08:41:03;4.00;;;2.00;;
73296;SDS011;61524;50.938;11.396;2023-08-24T08:43:29;5.97;;;3.15;;
73296;SDS011;61524;50.938;11.396;2023-08-24T08:45:55;5.25;;;2.20;;
73296;SDS011;61524;50.938;11.396;2023-08-24T08:48:20;3.70;;;2.10;;
73296;SDS011;61524;50.938;11.396;2023-08-24T08:50:49;4.65;;;2.28;;
73296;SDS011;61524;50.938;11.396;2023-08-24T08:53:15;4.22;;;2.30;;
73296;SDS011;61524;50.938;11.396;2023-08-24T08:55:40;5.50;;;2.08;;
73296;SDS011;61524;50.938;11.396;2023-08-24T08:58:06;5.20;;;2.20;;
73296;SDS011;61524;50.938;11.396;2023-08-24T09:00:31;5.88;;;2.45;;
73296;SDS011;61524;50.938;11.396;2023-08-24T09:02:57;3.80;;;2.10;;
73296;SDS011;61524;50.938;11.396;2023-08-24T09:05:22;3.97;;;2.50;;
73296;SDS011;61524;50.938;11.396;2023-08-24T09:07:51;4.38;;;2.00;;
73296;SDS011;61524;50.938;11.396;2023-08-24T09:10:18;4.57;;;2.15;;
73296;SDS011;61524;50.938;11.396;2023-08-24T09:12:43;5.18;;;1.85;;
73296;SDS011;61524;50.938;11.396;2023-08-24T09:15:09;5.38;;;1.98;;
73296;SDS011;61524;50.938;11.396;2023-08-24T09:17:34;3.40;;;2.05;;
73296;SDS011;61524;50.938;11.396;2023-08-24T09:20:00;4.23;;;1.83;;
73296;SDS011;61524;50.938;11.396;2023-08-24T09:22:25;4.53;;;2.10;;
73296;SDS011;61524;50.938;11.396;2023-08-24T09:24:51;4.60;;;2.47;;
73296;SDS011;61524;50.938;11.396;2023-08-24T09:27:19;5.05;;;2.80;;
73296;SDS011;61524;50.938;11.396;2023-08-24T09:29:51;4.60;;;2.30;;
73296;SDS011;61524;50.938;11.396;2023-08-24T09:32:38;9.20;;;2.80;;
73296;SDS011;61524;50.938;11.396;2023-08-24T09:35:03;5.03;;;2.60;;
73296;SDS011;61524;50.938;11.396;2023-08-24T09:37:34;7.72;;;2.75;;
73296;SDS011;61524;50.938;11.396;2023-08-24T09:40:03;4.78;;;2.42;;
73296;SDS011;61524;50.938;11.396;2023-08-24T09:42:39;5.00;;;2.33;;
73296;SDS011;61524;50.938;11.396;2023-08-24T09:45:05;5.55;;;2.25;;
73296;SDS011;61524;50.938;11.396;2023-08-24T09:47:31;4.88;;;2.55;;
73296;SDS011;61524;50.938;11.396;2023-08-24T09:49:56;8.10;;;2.03;;
73296;SDS011;61524;50.938;11.396;2023-08-24T09:52:21;7.27;;;2.77;;
73296;SDS011;61524;50.938;11.396;2023-08-24T09:54:48;6.65;;;2.05;;
73296;SDS011;61524;50.938;11.396;2023-08-24T09:57:14;11.15;;;3.42;;
73296;SDS011;61524;50.938;11.396;2023-08-24T09:59:40;8.70;;;2.20;;
73296;SDS011;61524;50.938;11.396;2023-08-24T10:02:16;8.95;;;2.15;;
73296;SDS011;61524;50.938;11.396;2023-08-24T10:04:44;3.95;;;1.92;;
73296;SDS011;61524;50.938;11.396;2023-08-24T10:07:10;5.05;;;2.20;;
73296;SDS011;61524;50.938;11.396;2023-08-24T10:09:39;4.10;;;2.00;;
73296;SDS011;61524;50.938;11.396;2023-08-24T10:12:08;3.50;;;2.13;;
73296;SDS011;61524;50.938;11.396;2023-08-24T10:16:59;4.47;;;1.70;;
73296;SDS011;61524;50.938;11.396;2023-08-24T10:19:25;5.75;;;2.40;;
73296;SDS011;61524;50.938;11.396;2023-08-24T10:21:51;8.07;;;1.98;;
73296;SDS011;61524;50.938;11.396;2023-08-24T10:24:18;4.00;;;2.40;;
73296;SDS011;61524;50.938;11.396;2023-08-24T10:26:46;25.85;;;4.40;;
73296;SDS011;61524;50.938;11.396;2023-08-24T10:29:11;12.23;;;3.15;;
73296;SDS011;61524;50.938;11.396;2023-08-24T10:31:37;5.30;;;2.75;;
73296;SDS011;61524;50.938;11.396;2023-08-24T10:34:03;6.05;;;2.97;;
73296;SDS011;61524;50.938;11.396;2023-08-24T10:36:30;12.00;;;3.38;;
73296;SDS011;61524;50.938;11.396;2023-08-24T10:38:55;11.43;;;2.83;;
73296;SDS011;61524;50.938;11.396;2023-08-24T10:41:27;10.68;;;2.65;;
73296;SDS011;61524;50.938;11.396;2023-08-24T10:43:52;6.85;;;2.83;;
73296;SDS011;61524;50.938;11.396;2023-08-24T10:46:28;6.97;;;2.80;;
73296;SDS011;61524;50.938;11.396;2023-08-24T10:48:59;5.07;;;2.83;;
73296;SDS011;61524;50.938;11.396;2023-08-24T10:51:25;5.82;;;2.88;;
73296;SDS011;61524;50.938;11.396;2023-08-24T10:56:24;5.70;;;3.03;;
73296;SDS011;61524;50.938;11.396;2023-08-24T10:59:15;4.43;;;3.25;;
73296;SDS011;61524;50.938;11.396;2023-08-24T11:01:43;5.22;;;2.83;;
73296;SDS011;61524;50.938;11.396;2023-08-24T11:04:19;5.53;;;3.08;;
73296;SDS011;61524;50.938;11.396;2023-08-24T11:06:51;9.18;;;3.65;;
73296;SDS011;61524;50.938;11.396;2023-08-24T11:09:17;6.80;;;3.20;;
73296;SDS011;61524;50.938;11.396;2023-08-24T11:11:42;5.55;;;2.88;;
73296;SDS011;61524;50.938;11.396;2023-08-24T11:14:19;7.38;;;2.63;;
73296;SDS011;61524;50.938;11.396;2023-08-24T11:16:47;6.68;;;2.65;;
73296;SDS011;61524;50.938;11.396;2023-08-24T11:19:12;6.30;;;2.30;;
73296;SDS011;61524;50.938;11.396;2023-08-24T11:21:38;5.38;;;2.60;;
73296;SDS011;61524;50.938;11.396;2023-08-24T11:24:04;6.00;;;2.20;;
73296;SDS011;61524;50.938;11.396;2023-08-24T11:26:30;3.30;;;1.98;;
73296;SDS011;61524;50.938;11.396;2023-08-24T11:28:55;4.38;;;2.00;;
73296;SDS011;61524;50.938;11.396;2023-08-24T11:31:23;4.72;;;1.88;;
73296;SDS011;61524;50.938;11.396;2023-08-24T11:33:53;5.28;;;2.25;;
73296;SDS011;61524;50.938;11.396;2023-08-24T11:36:18;4.35;;;1.80;;
73296;SDS011;61524;50.938;11.396;2023-08-24T11:38:43;5.63;;;1.67;;
73296;SDS011;61524;50.938;11.396;2023-08-24T11:43:37;7.95;;;1.73;;
73296;SDS011;61524;50.938;11.396;2023-08-24T11:46:02;5.17;;;1.97;;
73296;SDS011;61524;50.938;11.396;2023-08-24T11:48:28;3.72;;;1.70;;
73296;SDS011;61524;50.938;11.396;2023-08-24T11:50:54;3.80;;;1.63;;
73296;SDS011;61524;50.938;11.396;2023-08-24T11:53:20;7.90;;;1.95;;
73296;SDS011;61524;50.938;11.396;2023-08-24T11:55:45;4.23;;;1.93;;
73296;SDS011;61524;50.938;11.396;2023-08-24T11:58:16;3.40;;;1.40;;
73296;SDS011;61524;50.938;11.396;2023-08-24T12:00:42;4.05;;;1.88;;
73296;SDS011;61524;50.938;11.396;2023-08-24T12:03:08;4.65;;;2.15;;
73296;SDS011;61524;50.938;11.396;2023-08-24T12:05:33;3.50;;;1.65;;
73296;SDS011;61524;50.938;11.396;2023-08-24T12:07:58;4.35;;;1.70;;
73296;SDS011;61524;50.938;11.396;2023-08-24T12:10:24;5.95;;;1.92;;
73296;SDS011;61524;50.938;11.396;2023-08-24T12:12:49;3.58;;;1.65;;
73296;SDS011;61524;50.938;11.396;2023-08-24T12:15:27;3.63;;;1.90;;
73296;SDS011;61524;50.938;11.396;2023-08-24T12:17:53;7.55;;;2.30;;
73296;SDS011;61524;50.938;11.396;2023-08-24T12:20:19;3.92;;;2.00;;
73296;SDS011;61524;50.938;11.396;2023-08-24T12:22:49;4.20;;;1.95;;
73296;SDS011;61524;50.938;11.396;2023-08-24T12:25:16;15.57;;;3.40;;
73296;SDS011;61524;50.938;11.396;2023-08-24T12:27:41;4.18;;;2.30;;
73296;SDS011;61524;50.938;11.396;2023-08-24T12:30:07;4.47;;;2.10;;
73296;SDS011;61524;50.938;11.396;2023-08-24T12:32:42;4.53;;;1.90;;
73296;SDS011;61524;50.938;11.396;2023-08-24T12:35:08;6.20;;;2.60;;
73296;SDS011;61524;50.938;11.396;2023-08-24T12:40:01;4.88;;;2.58;;
73296;SDS011;61524;50.938;11.396;2023-08-24T12:42:26;5.75;;;2.30;;
73296;SDS011;61524;50.938;11.396;2023-08-24T12:44:52;4.00;;;2.42;;
73296;SDS011;61524;50.938;11.396;2023-08-24T12:47:17;4.73;;;2.40;;
73296;SDS011;61524;50.938;11.396;2023-08-24T12:49:42;4.53;;;3.27;;
73296;SDS011;61524;50.938;11.396;2023-08-24T12:52:08;7.38;;;2.70;;
73296;SDS011;61524;50.938;11.396;2023-08-24T12:54:33;4.68;;;2.78;;
73296;SDS011;61524;50.938;11.396;2023-08-24T12:56:59;7.17;;;2.83;;
73296;SDS011;61524;50.938;11.396;2023-08-24T12:59:24;6.77;;;2.47;;
73296;SDS011;61524;50.938;11.396;2023-08-24T13:01:49;7.47;;;2.93;;
73296;SDS011;61524;50.938;11.396;2023-08-24T13:04:15;5.35;;;3.00;;
73296;SDS011;61524;50.938;11.396;2023-08-24T13:06:40;5.13;;;3.00;;
73296;SDS011;61524;50.938;11.396;2023-08-24T13:09:05;6.55;;;2.53;;
73296;SDS011;61524;50.938;11.396;2023-08-24T13:11:31;7.20;;;3.05;;
73296;SDS011;61524;50.938;11.396;2023-08-24T13:13:57;5.35;;;2.72;;
73296;SDS011;61524;50.938;11.396;2023-08-24T13:16:22;7.40;;;3.07;;
73296;SDS011;61524;50.938;11.396;2023-08-24T13:18:48;9.70;;;2.97;;
73296;SDS011;61524;50.938;11.396;2023-08-24T13:21:13;5.17;;;2.67;;
73296;SDS011;61524;50.938;11.396;2023-08-24T13:23:38;4.77;;;2.47;;
73296;SDS011;61524;50.938;11.396;2023-08-24T13:26:03;6.13;;;2.50;;
73296;SDS011;61524;50.938;11.396;2023-08-24T13:28:29;4.88;;;2.30;;
73296;SDS011;61524;50.938;11.396;2023-08-24T13:30:54;4.50;;;2.00;;
73296;SDS011;61524;50.938;11.396;2023-08-24T13:33:19;4.43;;;2.40;;
73296;SDS011;61524;50.938;11.396;2023-08-24T13:35:45;4.72;;;2.30;;
73296;SDS011;61524;50.938;11.396;2023-08-24T13:38:10;4.85;;;2.67;;
73296;SDS011;61524;50.938;11.396;2023-08-24T13:40:36;4.32;;;2.25;;
73296;SDS011;61524;50.938;11.396;2023-08-24T13:43:01;4.60;;;2.47;;
73296;SDS011;61524;50.938;11.396;2023-08-24T13:45:26;4.60;;;2.55;;
73296;SDS011;61524;50.938;11.396;2023-08-24T13:47:52;4.65;;;2.70;;
73296;SDS011;61524;50.938;11.396;2023-08-24T13:50:17;4.22;;;2.50;;
73296;SDS011;61524;50.938;11.396;2023-08-24T13:52:42;4.20;;;2.55;;
73296;SDS011;61524;50.938;11.396;2023-08-24T13:55:08;5.93;;;2.73;;
73296;SDS011;61524;50.938;11.396;2023-08-24T13:57:33;4.35;;;2.78;;
73296;SDS011;61524;50.938;11.396;2023-08-24T13:59:58;4.50;;;2.50;;
73296;SDS011;61524;50.938;11.396;2023-08-24T14:04:49;4.53;;;2.40;;
73296;SDS011;61524;50.938;11.396;2023-08-24T14:07:16;7.38;;;2.65;;
73296;SDS011;61524;50.938;11.396;2023-08-24T14:09:41;6.90;;;2.72;;
73296;SDS011;61524;50.938;11.396;2023-08-24T14:12:06;5.50;;;2.83;;
73296;SDS011;61524;50.938;11.396;2023-08-24T14:14:32;4.55;;;2.60;;
73296;SDS011;61524;50.938;11.396;2023-08-24T14:16:57;7.63;;;3.30;;
73296;SDS011;61524;50.938;11.396;2023-08-24T14:19:23;5.03;;;2.63;;
73296;SDS011;61524;50.938;11.396;2023-08-24T14:21:48;4.85;;;2.85;;
73296;SDS011;61524;50.938;11.396;2023-08-24T14:24:13;6.37;;;3.00;;
73296;SDS011;61524;50.938;11.396;2023-08-24T14:26:39;6.13;;;2.43;;
73296;SDS011;61524;50.938;11.396;2023-08-24T14:29:10;5.68;;;2.60;;
73296;SDS011;61524;50.938;11.396;2023-08-24T14:31:36;6.72;;;3.10;;
73296;SDS011;61524;50.938;11.396;2023-08-24T14:34:01;6.30;;;2.93;;
73296;SDS011;61524;50.938;11.396;2023-08-24T14:36:28;7.18;;;2.80;;
73296;SDS011;61524;50.938;11.396;2023-08-24T14:38:53;6.70;;;3.08;;
73296;SDS011;61524;50.938;11.396;2023-08-24T14:41:19;4.97;;;2.87;;
73296;SDS011;61524;50.938;11.396;2023-08-24T14:43:44;6.23;;;2.90;;
73296;SDS011;61524;50.938;11.396;2023-08-24T14:46:10;4.95;;;2.60;;
73296;SDS011;61524;50.938;11.396;2023-08-24T14:48:36;4.68;;;2.63;;